sensor_id;sensor_type;location;lat;lon;timestamp;P1;durP1;ratioP1;P2;durP2;ratioP2
9974;SDS011;5028;50.974;4.968;2023-05-29T00:00:04;8.50;;;4.07;;
9974;SDS011;5028;50.974;4.968;2023-05-29T00:02:34;6.83;;;3.70;;
9974;SDS011;5028;50.974;4.968;2023-05-29T00:05:03;8.20;;;3.77;;
9974;SDS011;5028;50.974;4.968;2023-05-29T00:07:32;6.07;;;3.90;;
9974;SDS011;5028;50.974;4.968;2023-05-29T00:10:01;5.77;;;3.70;;
9974;SDS011;5028;50.974;4.968;2023-05-29T00:12:30;5.97;;;3.57;;
9974;SDS011;5028;50.974;4.968;2023-05-29T00:15:00;6.10;;;3.50;;
9974;SDS011;5028;50.974;4.968;2023-05-29T00:17:30;7.27;;;3.73;;
9974;SDS011;5028;50.974;4.968;2023-05-29T00:20:00;5.00;;;4.00;;
9974;SDS011;5028;50.974;4.968;2023-05-29T00:22:30;5.87;;;4.03;;
9974;SDS011;5028;50.974;4.968;2023-05-29T00:24:58;7.03;;;4.10;;
9974;SDS011;5028;50.974;4.968;2023-05-29T00:27:27;8.83;;;4.20;;
9974;SDS011;5028;50.974;4.968;2023-05-29T00:29:56;6.63;;;4.20;;
9974;SDS011;5028;50.974;4.968;2023-05-29T00:32:26;6.17;;;4.30;;
9974;SDS011;5028;50.974;4.968;2023-05-29T00:34:55;8.90;;;4.20;;
9974;SDS011;5028;50.974;4.968;2023-05-29T00:37:24;6.40;;;4.40;;
9974;SDS011;5028;50.974;4.968;2023-05-29T00:39:52;7.33;;;4.30;;
9974;SDS011;5028;50.974;4.968;2023-05-29T00:42:21;6.07;;;4.37;;
9974;SDS011;5028;50.974;4.968;2023-05-29T00:44:50;7.10;;;4.27;;
9974;SDS011;5028;50.974;4.968;2023-05-29T00:47:19;6.63;;;4.13;;
9974;SDS011;5028;50.974;4.968;2023-05-29T00:49:49;5.97;;;4.30;;
9974;SDS011;5028;50.974;4.968;2023-05-29T00:52:19;8.07;;;4.67;;
9974;SDS011;5028;50.974;4.968;2023-05-29T00:54:48;6.73;;;4.60;;
9974;SDS011;5028;50.974;4.968;2023-05-29T00:57:17;5.97;;;4.03;;
9974;SDS011;5028;50.974;4.968;2023-05-29T00:59:46;6.30;;;4.50;;
9974;SDS011;5028;50.974;4.968;2023-05-29T01:02:15;8.63;;;4.90;;
9974;SDS011;5028;50.974;4.968;2023-05-29T01:04:45;8.73;;;4.70;;
9974;SDS011;5028;50.974;4.968;2023-05-29T01:07:15;9.00;;;4.73;;
9974;SDS011;5028;50.974;4.968;2023-05-29T01:09:44;6.57;;;4.50;;
9974;SDS011;5028;50.974;4.968;2023-05-29T01:12:15;8.80;;;4.90;;
9974;SDS011;5028;50.974;4.968;2023-05-29T01:14:54;9.07;;;5.23;;
9974;SDS011;5028;50.974;4.968;2023-05-29T01:17:32;6.60;;;4.67;;
9974;SDS011;5028;50.974;4.968;2023-05-29T01:20:14;7.00;;;4.70;;
9974;SDS011;5028;50.974;4.968;2023-05-29T01:23:04;10.73;;;5.87;;
9974;SDS011;5028;50.974;4.968;2023-05-29T01:25:48;8.10;;;5.97;;
9974;SDS011;5028;50.974;4.968;2023-05-29T01:28:29;7.87;;;5.57;;
9974;SDS011;5028;50.974;4.968;2023-05-29T01:31:03;9.90;;;6.00;;
9974;SDS011;5028;50.974;4.968;2023-05-29T01:33:33;9.67;;;6.20;;
9974;SDS011;5028;50.974;4.968;2023-05-29T01:36:01;9.73;;;6.30;;
9974;SDS011;5028;50.974;4.968;2023-05-29T01:38:30;9.50;;;6.00;;
9974;SDS011;5028;50.974;4.968;2023-05-29T01:40:59;9.37;;;6.47;;
9974;SDS011;5028;50.974;4.968;2023-05-29T01:43:30;12.93;;;6.97;;
9974;SDS011;5028;50.974;4.968;2023-05-29T01:45:59;11.43;;;6.47;;
9974;SDS011;5028;50.974;4.968;2023-05-29T01:48:29;10.07;;;6.13;;
9974;SDS011;5028;50.974;4.968;2023-05-29T01:50:58;9.23;;;6.27;;
9974;SDS011;5028;50.974;4.968;2023-05-29T01:53:27;8.17;;;6.33;;
9974;SDS011;5028;50.974;4.968;2023-05-29T01:55:55;10.80;;;6.57;;
9974;SDS011;5028;50.974;4.968;2023-05-29T01:58:24;9.70;;;6.23;;
9974;SDS011;5028;50.974;4.968;2023-05-29T02:00:55;10.57;;;6.30;;
9974;SDS011;5028;50.974;4.968;2023-05-29T02:03:28;11.30;;;6.90;;
9974;SDS011;5028;50.974;4.968;2023-05-29T02:05:57;12.10;;;7.10;;
9974;SDS011;5028;50.974;4.968;2023-05-29T02:08:26;11.47;;;6.50;;
9974;SDS011;5028;50.974;4.968;2023-05-29T02:10:55;12.63;;;5.40;;
9974;SDS011;5028;50.974;4.968;2023-05-29T02:13:24;9.83;;;5.70;;
9974;SDS011;5028;50.974;4.968;2023-05-29T02:15:56;11.47;;;6.00;;
9974;SDS011;5028;50.974;4.968;2023-05-29T02:18:25;12.80;;;5.83;;
9974;SDS011;5028;50.974;4.968;2023-05-29T02:20:53;11.20;;;6.17;;
9974;SDS011;5028;50.974;4.968;2023-05-29T02:23:22;12.50;;;6.03;;
9974;SDS011;5028;50.974;4.968;2023-05-29T02:25:51;8.03;;;5.20;;
9974;SDS011;5028;50.974;4.968;2023-05-29T02:28:20;10.93;;;5.93;;
9974;SDS011;5028;50.974;4.968;2023-05-29T02:30:48;10.37;;;5.10;;
9974;SDS011;5028;50.974;4.968;2023-05-29T02:33:21;12.37;;;5.30;;
9974;SDS011;5028;50.974;4.968;2023-05-29T02:35:50;10.27;;;5.30;;
9974;SDS011;5028;50.974;4.968;2023-05-29T02:38:18;13.23;;;5.10;;
9974;SDS011;5028;50.974;4.968;2023-05-29T02:40:47;11.77;;;5.27;;
9974;SDS011;5028;50.974;4.968;2023-05-29T02:43:16;8.27;;;4.57;;
9974;SDS011;5028;50.974;4.968;2023-05-29T02:45:45;13.07;;;5.37;;
9974;SDS011;5028;50.974;4.968;2023-05-29T02:48:13;12.83;;;4.90;;
9974;SDS011;5028;50.974;4.968;2023-05-29T02:50:43;10.60;;;5.00;;
9974;SDS011;5028;50.974;4.968;2023-05-29T02:53:12;12.77;;;4.70;;
9974;SDS011;5028;50.974;4.968;2023-05-29T02:55:41;10.87;;;4.53;;
9974;SDS011;5028;50.974;4.968;2023-05-29T02:58:10;11.17;;;4.77;;
9974;SDS011;5028;50.974;4.968;2023-05-29T03:00:39;8.13;;;4.07;;
9974;SDS011;5028;50.974;4.968;2023-05-29T03:03:07;11.07;;;4.30;;
9974;SDS011;5028;50.974;4.968;2023-05-29T03:05:36;10.77;;;4.20;;
9974;SDS011;5028;50.974;4.968;2023-05-29T03:08:06;6.40;;;3.07;;
9974;SDS011;5028;50.974;4.968;2023-05-29T03:10:35;12.07;;;4.03;;
9974;SDS011;5028;50.974;4.968;2023-05-29T03:13:04;11.90;;;3.80;;
9974;SDS011;5028;50.974;4.968;2023-05-29T03:15:33;11.77;;;4.07;;
9974;SDS011;5028;50.974;4.968;2023-05-29T03:18:02;9.27;;;3.67;;
9974;SDS011;5028;50.974;4.968;2023-05-29T03:20:31;10.17;;;4.03;;
9974;SDS011;5028;50.974;4.968;2023-05-29T03:23:00;8.10;;;3.60;;
9974;SDS011;5028;50.974;4.968;2023-05-29T03:25:30;8.90;;;3.53;;
9974;SDS011;5028;50.974;4.968;2023-05-29T03:27:59;7.57;;;3.37;;
9974;SDS011;5028;50.974;4.968;2023-05-29T03:30:28;10.93;;;3.57;;
9974;SDS011;5028;50.974;4.968;2023-05-29T03:32:56;12.60;;;3.40;;
9974;SDS011;5028;50.974;4.968;2023-05-29T03:35:30;7.73;;;2.87;;
9974;SDS011;5028;50.974;4.968;2023-05-29T03:37:59;7.87;;;3.33;;
9974;SDS011;5028;50.974;4.968;2023-05-29T03:40:29;10.10;;;3.50;;
9974;SDS011;5028;50.974;4.968;2023-05-29T03:42:58;8.97;;;3.20;;
9974;SDS011;5028;50.974;4.968;2023-05-29T03:45:29;8.77;;;3.30;;
9974;SDS011;5028;50.974;4.968;2023-05-29T03:47:58;8.03;;;3.07;;
9974;SDS011;5028;50.974;4.968;2023-05-29T03:50:26;10.27;;;3.37;;
9974;SDS011;5028;50.974;4.968;2023-05-29T03:52:56;7.90;;;3.07;;
9974;SDS011;5028;50.974;4.968;2023-05-29T03:55:25;8.80;;;3.07;;
9974;SDS011;5028;50.974;4.968;2023-05-29T03:57:56;8.00;;;3.13;;
9974;SDS011;5028;50.974;4.968;2023-05-29T04:00:24;10.77;;;3.60;;
9974;SDS011;5028;50.974;4.968;2023-05-29T04:02:54;8.93;;;3.30;;
9974;SDS011;5028;50.974;4.968;2023-05-29T04:05:24;8.90;;;2.70;;
9974;SDS011;5028;50.974;4.968;2023-05-29T04:07:53;13.57;;;3.40;;
9974;SDS011;5028;50.974;4.968;2023-05-29T04:10:40;10.97;;;3.47;;
9974;SDS011;5028;50.974;4.968;2023-05-29T04:13:12;11.27;;;3.23;;
9974;SDS011;5028;50.974;4.968;2023-05-29T04:15:40;13.40;;;3.23;;
9974;SDS011;5028;50.974;4.968;2023-05-29T04:18:09;8.40;;;2.90;;
9974;SDS011;5028;50.974;4.968;2023-05-29T04:20:38;7.90;;;2.93;;
9974;SDS011;5028;50.974;4.968;2023-05-29T04:23:07;8.00;;;3.10;;
9974;SDS011;5028;50.974;4.968;2023-05-29T04:25:36;10.47;;;3.33;;
9974;SDS011;5028;50.974;4.968;2023-05-29T04:28:04;9.57;;;2.90;;
9974;SDS011;5028;50.974;4.968;2023-05-29T04:30:34;12.07;;;3.10;;
9974;SDS011;5028;50.974;4.968;2023-05-29T04:33:05;9.43;;;3.00;;
9974;SDS011;5028;50.974;4.968;2023-05-29T04:35:36;9.23;;;3.23;;
9974;SDS011;5028;50.974;4.968;2023-05-29T04:38:04;8.97;;;3.03;;
9974;SDS011;5028;50.974;4.968;2023-05-29T04:40:33;8.40;;;3.17;;
9974;SDS011;5028;50.974;4.968;2023-05-29T04:43:03;9.67;;;2.80;;
9974;SDS011;5028;50.974;4.968;2023-05-29T04:45:32;8.23;;;2.80;;
9974;SDS011;5028;50.974;4.968;2023-05-29T04:48:05;9.67;;;3.23;;
9974;SDS011;5028;50.974;4.968;2023-05-29T04:50:35;8.80;;;3.10;;
9974;SDS011;5028;50.974;4.968;2023-05-29T04:53:05;7.93;;;2.63;;
9974;SDS011;5028;50.974;4.968;2023-05-29T04:55:34;11.27;;;3.50;;
9974;SDS011;5028;50.974;4.968;2023-05-29T04:58:03;11.87;;;3.23;;
9974;SDS011;5028;50.974;4.968;2023-05-29T05:00:31;9.80;;;3.23;;
9974;SDS011;5028;50.974;4.968;2023-05-29T05:03:00;10.77;;;3.57;;
9974;SDS011;5028;50.974;4.968;2023-05-29T05:05:30;13.50;;;3.97;;
9974;SDS011;5028;50.974;4.968;2023-05-29T05:07:59;10.50;;;3.33;;
9974;SDS011;5028;50.974;4.968;2023-05-29T05:10:28;7.97;;;3.30;;
9974;SDS011;5028;50.974;4.968;2023-05-29T05:12:57;10.50;;;3.60;;
9974;SDS011;5028;50.974;4.968;2023-05-29T05:15:25;9.97;;;3.30;;
9974;SDS011;5028;50.974;4.968;2023-05-29T05:17:54;7.87;;;2.90;;
9974;SDS011;5028;50.974;4.968;2023-05-29T05:20:25;11.77;;;3.10;;
9974;SDS011;5028;50.974;4.968;2023-05-29T05:22:56;8.87;;;3.60;;
9974;SDS011;5028;50.974;4.968;2023-05-29T05:25:26;7.97;;;2.80;;
9974;SDS011;5028;50.974;4.968;2023-05-29T05:27:55;10.10;;;3.10;;
9974;SDS011;5028;50.974;4.968;2023-05-29T05:30:23;12.27;;;3.50;;
9974;SDS011;5028;50.974;4.968;2023-05-29T05:32:52;8.80;;;3.20;;
9974;SDS011;5028;50.974;4.968;2023-05-29T05:35:21;16.20;;;4.10;;
9974;SDS011;5028;50.974;4.968;2023-05-29T05:37:50;8.33;;;3.20;;
9974;SDS011;5028;50.974;4.968;2023-05-29T05:40:21;14.77;;;3.87;;
9974;SDS011;5028;50.974;4.968;2023-05-29T05:42:49;13.70;;;3.37;;
9974;SDS011;5028;50.974;4.968;2023-05-29T05:45:18;10.17;;;3.30;;
9974;SDS011;5028;50.974;4.968;2023-05-29T05:47:47;11.90;;;3.37;;
9974;SDS011;5028;50.974;4.968;2023-05-29T05:50:16;11.60;;;3.40;;
9974;SDS011;5028;50.974;4.968;2023-05-29T05:52:44;9.67;;;3.30;;
9974;SDS011;5028;50.974;4.968;2023-05-29T05:55:13;9.93;;;3.70;;
9974;SDS011;5028;50.974;4.968;2023-05-29T05:57:43;11.50;;;3.60;;
9974;SDS011;5028;50.974;4.968;2023-05-29T06:00:13;11.60;;;3.53;;
9974;SDS011;5028;50.974;4.968;2023-05-29T06:02:42;9.13;;;3.10;;
9974;SDS011;5028;50.974;4.968;2023-05-29T06:05:12;12.17;;;3.77;;
9974;SDS011;5028;50.974;4.968;2023-05-29T06:07:41;11.27;;;3.87;;
9974;SDS011;5028;50.974;4.968;2023-05-29T06:10:09;10.60;;;3.30;;
9974;SDS011;5028;50.974;4.968;2023-05-29T06:12:39;11.40;;;3.20;;
9974;SDS011;5028;50.974;4.968;2023-05-29T06:15:10;13.27;;;3.60;;
9974;SDS011;5028;50.974;4.968;2023-05-29T06:17:39;11.03;;;3.33;;
9974;SDS011;5028;50.974;4.968;2023-05-29T06:20:08;12.77;;;3.50;;
9974;SDS011;5028;50.974;4.968;2023-05-29T06:22:38;11.00;;;3.20;;
9974;SDS011;5028;50.974;4.968;2023-05-29T06:25:07;9.30;;;3.03;;
9974;SDS011;5028;50.974;4.968;2023-05-29T06:27:37;13.00;;;3.50;;
9974;SDS011;5028;50.974;4.968;2023-05-29T06:30:07;8.57;;;3.27;;
9974;SDS011;5028;50.974;4.968;2023-05-29T06:32:39;11.07;;;3.10;;
9974;SDS011;5028;50.974;4.968;2023-05-29T06:35:08;8.93;;;3.27;;
9974;SDS011;5028;50.974;4.968;2023-05-29T06:37:37;8.83;;;3.43;;
9974;SDS011;5028;50.974;4.968;2023-05-29T06:40:06;8.27;;;2.83;;
9974;SDS011;5028;50.974;4.968;2023-05-29T06:42:37;12.70;;;3.73;;
9974;SDS011;5028;50.974;4.968;2023-05-29T06:45:06;12.53;;;4.37;;
9974;SDS011;5028;50.974;4.968;2023-05-29T06:47:39;10.80;;;3.30;;
9974;SDS011;5028;50.974;4.968;2023-05-29T06:50:09;11.70;;;4.00;;
9974;SDS011;5028;50.974;4.968;2023-05-29T06:52:38;10.83;;;3.07;;
9974;SDS011;5028;50.974;4.968;2023-05-29T06:55:07;9.57;;;3.43;;
9974;SDS011;5028;50.974;4.968;2023-05-29T06:57:36;11.73;;;3.50;;
9974;SDS011;5028;50.974;4.968;2023-05-29T07:00:05;11.63;;;3.53;;
9974;SDS011;5028;50.974;4.968;2023-05-29T07:02:37;10.90;;;3.63;;
9974;SDS011;5028;50.974;4.968;2023-05-29T07:05:06;9.07;;;2.90;;
9974;SDS011;5028;50.974;4.968;2023-05-29T07:07:36;10.17;;;3.33;;
9974;SDS011;5028;50.974;4.968;2023-05-29T07:10:08;9.97;;;3.10;;
9974;SDS011;5028;50.974;4.968;2023-05-29T07:12:37;10.40;;;2.97;;
9974;SDS011;5028;50.974;4.968;2023-05-29T07:15:06;9.60;;;3.03;;
9974;SDS011;5028;50.974;4.968;2023-05-29T07:17:39;10.77;;;2.87;;
9974;SDS011;5028;50.974;4.968;2023-05-29T07:20:07;9.93;;;3.20;;
9974;SDS011;5028;50.974;4.968;2023-05-29T07:22:37;11.27;;;3.40;;
9974;SDS011;5028;50.974;4.968;2023-05-29T07:25:06;10.47;;;2.90;;
9974;SDS011;5028;50.974;4.968;2023-05-29T07:27:35;10.00;;;3.20;;
9974;SDS011;5028;50.974;4.968;2023-05-29T07:30:06;9.03;;;3.57;;
9974;SDS011;5028;50.974;4.968;2023-05-29T07:32:35;9.77;;;3.33;;
9974;SDS011;5028;50.974;4.968;2023-05-29T07:35:06;10.87;;;3.33;;
9974;SDS011;5028;50.974;4.968;2023-05-29T07:37:35;11.13;;;3.40;;
9974;SDS011;5028;50.974;4.968;2023-05-29T07:40:04;8.57;;;2.73;;
9974;SDS011;5028;50.974;4.968;2023-05-29T07:42:34;10.07;;;3.17;;
9974;SDS011;5028;50.974;4.968;2023-05-29T07:45:03;10.50;;;3.33;;
9974;SDS011;5028;50.974;4.968;2023-05-29T07:47:32;9.87;;;3.47;;
9974;SDS011;5028;50.974;4.968;2023-05-29T07:50:06;10.57;;;3.20;;
9974;SDS011;5028;50.974;4.968;2023-05-29T07:52:36;7.70;;;2.73;;
9974;SDS011;5028;50.974;4.968;2023-05-29T07:55:04;7.33;;;2.53;;
9974;SDS011;5028;50.974;4.968;2023-05-29T07:57:34;10.40;;;3.20;;
9974;SDS011;5028;50.974;4.968;2023-05-29T08:00:03;9.57;;;3.20;;
9974;SDS011;5028;50.974;4.968;2023-05-29T08:02:35;8.43;;;3.10;;
9974;SDS011;5028;50.974;4.968;2023-05-29T08:05:07;10.00;;;2.93;;
9974;SDS011;5028;50.974;4.968;2023-05-29T08:07:36;9.43;;;3.20;;
9974;SDS011;5028;50.974;4.968;2023-05-29T08:10:05;10.37;;;3.57;;
9974;SDS011;5028;50.974;4.968;2023-05-29T08:12:35;8.20;;;2.60;;
9974;SDS011;5028;50.974;4.968;2023-05-29T08:15:04;9.97;;;3.00;;
9974;SDS011;5028;50.974;4.968;2023-05-29T08:17:34;7.53;;;3.10;;
9974;SDS011;5028;50.974;4.968;2023-05-29T08:20:03;12.63;;;3.30;;
9974;SDS011;5028;50.974;4.968;2023-05-29T08:22:36;10.20;;;3.50;;
9974;SDS011;5028;50.974;4.968;2023-05-29T08:25:05;9.57;;;3.37;;
9974;SDS011;5028;50.974;4.968;2023-05-29T08:27:34;10.37;;;3.60;;
9974;SDS011;5028;50.974;4.968;2023-05-29T08:30:03;11.73;;;3.50;;
9974;SDS011;5028;50.974;4.968;2023-05-29T08:32:32;8.60;;;3.10;;
9974;SDS011;5028;50.974;4.968;2023-05-29T08:35:01;10.83;;;3.93;;
9974;SDS011;5028;50.974;4.968;2023-05-29T08:37:31;14.13;;;3.37;;
9974;SDS011;5028;50.974;4.968;2023-05-29T08:40:02;11.30;;;3.30;;
9974;SDS011;5028;50.974;4.968;2023-05-29T08:42:36;9.57;;;3.20;;
9974;SDS011;5028;50.974;4.968;2023-05-29T08:45:13;11.83;;;3.37;;
9974;SDS011;5028;50.974;4.968;2023-05-29T08:47:42;9.13;;;3.13;;
9974;SDS011;5028;50.974;4.968;2023-05-29T08:50:12;10.73;;;3.03;;
9974;SDS011;5028;50.974;4.968;2023-05-29T08:52:43;8.17;;;3.40;;
9974;SDS011;5028;50.974;4.968;2023-05-29T08:55:13;10.03;;;3.47;;
9974;SDS011;5028;50.974;4.968;2023-05-29T08:57:42;12.27;;;3.80;;
9974;SDS011;5028;50.974;4.968;2023-05-29T09:00:12;12.07;;;3.37;;
9974;SDS011;5028;50.974;4.968;2023-05-29T09:02:45;8.13;;;3.13;;
9974;SDS011;5028;50.974;4.968;2023-05-29T09:05:14;8.23;;;3.20;;
9974;SDS011;5028;50.974;4.968;2023-05-29T09:07:43;11.53;;;3.77;;
9974;SDS011;5028;50.974;4.968;2023-05-29T09:10:15;8.13;;;3.20;;
9974;SDS011;5028;50.974;4.968;2023-05-29T09:12:43;11.40;;;3.43;;
9974;SDS011;5028;50.974;4.968;2023-05-29T09:15:17;9.57;;;2.93;;
9974;SDS011;5028;50.974;4.968;2023-05-29T09:17:49;9.23;;;2.90;;
9974;SDS011;5028;50.974;4.968;2023-05-29T09:20:20;9.67;;;3.37;;
9974;SDS011;5028;50.974;4.968;2023-05-29T09:22:54;9.43;;;3.10;;
9974;SDS011;5028;50.974;4.968;2023-05-29T09:25:25;9.10;;;3.07;;
9974;SDS011;5028;50.974;4.968;2023-05-29T09:27:55;7.30;;;3.00;;
9974;SDS011;5028;50.974;4.968;2023-05-29T09:30:33;10.90;;;2.87;;
9974;SDS011;5028;50.974;4.968;2023-05-29T09:33:03;8.77;;;3.53;;
9974;SDS011;5028;50.974;4.968;2023-05-29T09:35:33;11.87;;;3.10;;
9974;SDS011;5028;50.974;4.968;2023-05-29T09:38:04;7.07;;;3.07;;
9974;SDS011;5028;50.974;4.968;2023-05-29T09:40:35;13.13;;;3.80;;
9974;SDS011;5028;50.974;4.968;2023-05-29T09:43:05;10.57;;;3.23;;
9974;SDS011;5028;50.974;4.968;2023-05-29T09:45:37;9.30;;;3.43;;
9974;SDS011;5028;50.974;4.968;2023-05-29T09:48:07;7.10;;;2.87;;
9974;SDS011;5028;50.974;4.968;2023-05-29T09:50:42;8.70;;;3.20;;
9974;SDS011;5028;50.974;4.968;2023-05-29T09:53:18;11.07;;;2.93;;
9974;SDS011;5028;50.974;4.968;2023-05-29T09:55:50;9.37;;;2.67;;
9974;SDS011;5028;50.974;4.968;2023-05-29T09:58:21;8.23;;;3.13;;
9974;SDS011;5028;50.974;4.968;2023-05-29T10:00:51;8.10;;;2.97;;
9974;SDS011;5028;50.974;4.968;2023-05-29T10:03:20;10.40;;;3.00;;
9974;SDS011;5028;50.974;4.968;2023-05-29T10:05:53;49.00;;;6.27;;
9974;SDS011;5028;50.974;4.968;2023-05-29T10:08:25;8.43;;;3.07;;
9974;SDS011;5028;50.974;4.968;2023-05-29T10:10:58;13.83;;;3.20;;
9974;SDS011;5028;50.974;4.968;2023-05-29T10:13:31;10.23;;;2.57;;
9974;SDS011;5028;50.974;4.968;2023-05-29T10:16:03;12.77;;;3.20;;
9974;SDS011;5028;50.974;4.968;2023-05-29T10:18:36;9.47;;;3.37;;
9974;SDS011;5028;50.974;4.968;2023-05-29T10:21:07;9.20;;;2.67;;
9974;SDS011;5028;50.974;4.968;2023-05-29T10:23:40;9.13;;;2.93;;
9974;SDS011;5028;50.974;4.968;2023-05-29T10:26:18;7.67;;;2.93;;
9974;SDS011;5028;50.974;4.968;2023-05-29T10:28:50;11.57;;;3.13;;
9974;SDS011;5028;50.974;4.968;2023-05-29T10:31:26;6.80;;;2.60;;
9974;SDS011;5028;50.974;4.968;2023-05-29T10:34:03;9.40;;;3.00;;
9974;SDS011;5028;50.974;4.968;2023-05-29T10:36:40;9.20;;;2.70;;
9974;SDS011;5028;50.974;4.968;2023-05-29T10:39:12;8.03;;;2.93;;
9974;SDS011;5028;50.974;4.968;2023-05-29T10:41:42;7.73;;;2.73;;
9974;SDS011;5028;50.974;4.968;2023-05-29T10:47:08;10.40;;;2.87;;
9974;SDS011;5028;50.974;4.968;2023-05-29T10:49:39;8.37;;;2.60;;
9974;SDS011;5028;50.974;4.968;2023-05-29T10:52:16;10.07;;;3.10;;
9974;SDS011;5028;50.974;4.968;2023-05-29T10:54:50;7.97;;;2.77;;
9974;SDS011;5028;50.974;4.968;2023-05-29T10:57:22;7.53;;;2.93;;
9974;SDS011;5028;50.974;4.968;2023-05-29T10:59:59;7.40;;;2.37;;
9974;SDS011;5028;50.974;4.968;2023-05-29T11:02:36;10.57;;;3.13;;
9974;SDS011;5028;50.974;4.968;2023-05-29T11:07:51;7.17;;;2.50;;
9974;SDS011;5028;50.974;4.968;2023-05-29T11:13:13;8.53;;;2.73;;
9974;SDS011;5028;50.974;4.968;2023-05-29T11:16:11;6.80;;;2.93;;
9974;SDS011;5028;50.974;4.968;2023-05-29T11:18:42;7.60;;;2.77;;
9974;SDS011;5028;50.974;4.968;2023-05-29T11:21:18;8.60;;;3.47;;
9974;SDS011;5028;50.974;4.968;2023-05-29T11:23:51;7.93;;;3.07;;
9974;SDS011;5028;50.974;4.968;2023-05-29T11:26:21;5.47;;;2.33;;
9974;SDS011;5028;50.974;4.968;2023-05-29T11:28:54;6.87;;;2.60;;
9974;SDS011;5028;50.974;4.968;2023-05-29T11:31:29;6.93;;;2.30;;
9974;SDS011;5028;50.974;4.968;2023-05-29T11:34:01;10.87;;;3.10;;
9974;SDS011;5028;50.974;4.968;2023-05-29T11:36:32;10.17;;;3.00;;
9974;SDS011;5028;50.974;4.968;2023-05-29T11:39:01;7.03;;;2.90;;
9974;SDS011;5028;50.974;4.968;2023-05-29T11:41:30;12.70;;;3.10;;
9974;SDS011;5028;50.974;4.968;2023-05-29T11:44:02;7.80;;;2.60;;
9974;SDS011;5028;50.974;4.968;2023-05-29T11:46:32;6.30;;;2.50;;
9974;SDS011;5028;50.974;4.968;2023-05-29T11:49:01;6.30;;;2.50;;
9974;SDS011;5028;50.974;4.968;2023-05-29T11:51:30;7.07;;;2.40;;
9974;SDS011;5028;50.974;4.968;2023-05-29T11:53:59;7.30;;;2.63;;
9974;SDS011;5028;50.974;4.968;2023-05-29T11:56:28;8.17;;;2.90;;
9974;SDS011;5028;50.974;4.968;2023-05-29T11:58:58;9.57;;;2.80;;
9974;SDS011;5028;50.974;4.968;2023-05-29T12:01:31;7.53;;;2.63;;
9974;SDS011;5028;50.974;4.968;2023-05-29T12:04:03;7.30;;;2.80;;
9974;SDS011;5028;50.974;4.968;2023-05-29T12:06:41;9.07;;;3.33;;
9974;SDS011;5028;50.974;4.968;2023-05-29T12:09:22;9.43;;;2.53;;
9974;SDS011;5028;50.974;4.968;2023-05-29T12:11:53;5.83;;;2.40;;
9974;SDS011;5028;50.974;4.968;2023-05-29T12:14:22;8.40;;;2.57;;
9974;SDS011;5028;50.974;4.968;2023-05-29T12:16:52;7.43;;;2.60;;
9974;SDS011;5028;50.974;4.968;2023-05-29T12:19:21;9.47;;;2.77;;
9974;SDS011;5028;50.974;4.968;2023-05-29T12:21:50;7.73;;;2.83;;
9974;SDS011;5028;50.974;4.968;2023-05-29T12:24:19;8.40;;;2.73;;
9974;SDS011;5028;50.974;4.968;2023-05-29T12:26:57;9.03;;;2.53;;
9974;SDS011;5028;50.974;4.968;2023-05-29T12:29:30;4.50;;;1.93;;
9974;SDS011;5028;50.974;4.968;2023-05-29T12:32:02;7.40;;;2.90;;
9974;SDS011;5028;50.974;4.968;2023-05-29T12:34:33;6.77;;;2.80;;
9974;SDS011;5028;50.974;4.968;2023-05-29T12:37:05;5.73;;;2.20;;
9974;SDS011;5028;50.974;4.968;2023-05-29T12:39:39;5.87;;;2.23;;
9974;SDS011;5028;50.974;4.968;2023-05-29T12:42:08;7.00;;;2.47;;
9974;SDS011;5028;50.974;4.968;2023-05-29T12:44:37;6.67;;;2.70;;
9974;SDS011;5028;50.974;4.968;2023-05-29T12:47:08;5.90;;;2.50;;
9974;SDS011;5028;50.974;4.968;2023-05-29T12:49:38;8.27;;;2.47;;
9974;SDS011;5028;50.974;4.968;2023-05-29T12:52:08;7.37;;;2.40;;
9974;SDS011;5028;50.974;4.968;2023-05-29T12:54:38;7.73;;;2.67;;
9974;SDS011;5028;50.974;4.968;2023-05-29T12:57:07;7.70;;;2.40;;
9974;SDS011;5028;50.974;4.968;2023-05-29T12:59:35;9.90;;;2.60;;
9974;SDS011;5028;50.974;4.968;2023-05-29T13:02:05;6.13;;;2.50;;
9974;SDS011;5028;50.974;4.968;2023-05-29T13:04:36;5.30;;;2.20;;
9974;SDS011;5028;50.974;4.968;2023-05-29T13:07:05;4.97;;;2.40;;
9974;SDS011;5028;50.974;4.968;2023-05-29T13:09:33;5.70;;;2.47;;
9974;SDS011;5028;50.974;4.968;2023-05-29T13:12:03;5.83;;;2.57;;
9974;SDS011;5028;50.974;4.968;2023-05-29T13:14:32;5.47;;;2.37;;
9974;SDS011;5028;50.974;4.968;2023-05-29T13:17:01;8.10;;;2.43;;
9974;SDS011;5028;50.974;4.968;2023-05-29T13:19:30;5.40;;;2.27;;
9974;SDS011;5028;50.974;4.968;2023-05-29T13:22:00;6.80;;;2.77;;
9974;SDS011;5028;50.974;4.968;2023-05-29T13:24:29;8.40;;;2.90;;
9974;SDS011;5028;50.974;4.968;2023-05-29T13:26:58;4.70;;;2.37;;
9974;SDS011;5028;50.974;4.968;2023-05-29T13:29:27;7.23;;;2.43;;
9974;SDS011;5028;50.974;4.968;2023-05-29T13:31:56;7.70;;;2.77;;
9974;SDS011;5028;50.974;4.968;2023-05-29T13:34:24;5.57;;;2.43;;
9974;SDS011;5028;50.974;4.968;2023-05-29T13:36:55;8.20;;;3.20;;
9974;SDS011;5028;50.974;4.968;2023-05-29T13:39:25;5.43;;;2.30;;
9974;SDS011;5028;50.974;4.968;2023-05-29T13:41:54;5.40;;;2.60;;
9974;SDS011;5028;50.974;4.968;2023-05-29T13:44:22;7.87;;;2.97;;
9974;SDS011;5028;50.974;4.968;2023-05-29T13:46:51;8.03;;;3.00;;
9974;SDS011;5028;50.974;4.968;2023-05-29T13:49:20;6.53;;;2.67;;
9974;SDS011;5028;50.974;4.968;2023-05-29T13:51:48;6.93;;;2.73;;
9974;SDS011;5028;50.974;4.968;2023-05-29T13:54:17;7.47;;;2.50;;
9974;SDS011;5028;50.974;4.968;2023-05-29T13:56:48;6.27;;;2.70;;
9974;SDS011;5028;50.974;4.968;2023-05-29T13:59:16;9.17;;;2.83;;
9974;SDS011;5028;50.974;4.968;2023-05-29T14:01:45;5.80;;;2.53;;
9974;SDS011;5028;50.974;4.968;2023-05-29T14:04:14;5.33;;;2.27;;
9974;SDS011;5028;50.974;4.968;2023-05-29T14:06:43;9.17;;;2.90;;
9974;SDS011;5028;50.974;4.968;2023-05-29T14:09:11;5.30;;;2.40;;
9974;SDS011;5028;50.974;4.968;2023-05-29T14:11:42;9.33;;;2.83;;
9974;SDS011;5028;50.974;4.968;2023-05-29T14:14:12;5.17;;;2.23;;
9974;SDS011;5028;50.974;4.968;2023-05-29T14:16:42;7.77;;;2.87;;
9974;SDS011;5028;50.974;4.968;2023-05-29T14:19:12;7.43;;;2.90;;
9974;SDS011;5028;50.974;4.968;2023-05-29T14:21:41;5.00;;;2.47;;
9974;SDS011;5028;50.974;4.968;2023-05-29T14:24:10;6.77;;;2.60;;
9974;SDS011;5028;50.974;4.968;2023-05-29T14:26:39;6.63;;;2.37;;
9974;SDS011;5028;50.974;4.968;2023-05-29T14:29:10;6.13;;;2.47;;
9974;SDS011;5028;50.974;4.968;2023-05-29T14:31:43;8.13;;;2.73;;
9974;SDS011;5028;50.974;4.968;2023-05-29T14:34:12;8.00;;;2.57;;
9974;SDS011;5028;50.974;4.968;2023-05-29T14:36:40;4.30;;;2.40;;
9974;SDS011;5028;50.974;4.968;2023-05-29T14:39:11;4.50;;;2.27;;
9974;SDS011;5028;50.974;4.968;2023-05-29T14:41:40;5.80;;;2.67;;
9974;SDS011;5028;50.974;4.968;2023-05-29T14:44:09;12.60;;;3.27;;
9974;SDS011;5028;50.974;4.968;2023-05-29T14:46:40;7.73;;;2.60;;
9974;SDS011;5028;50.974;4.968;2023-05-29T14:49:09;7.53;;;2.90;;
9974;SDS011;5028;50.974;4.968;2023-05-29T14:51:38;5.13;;;2.40;;
9974;SDS011;5028;50.974;4.968;2023-05-29T14:54:09;7.10;;;2.80;;
9974;SDS011;5028;50.974;4.968;2023-05-29T14:56:38;7.20;;;2.73;;
9974;SDS011;5028;50.974;4.968;2023-05-29T14:59:07;5.70;;;2.37;;
9974;SDS011;5028;50.974;4.968;2023-05-29T15:01:35;4.07;;;2.20;;
9974;SDS011;5028;50.974;4.968;2023-05-29T15:04:06;5.40;;;2.00;;
9974;SDS011;5028;50.974;4.968;2023-05-29T15:06:34;6.93;;;2.30;;
9974;SDS011;5028;50.974;4.968;2023-05-29T15:09:03;10.03;;;2.40;;
9974;SDS011;5028;50.974;4.968;2023-05-29T15:11:32;7.00;;;2.60;;
9974;SDS011;5028;50.974;4.968;2023-05-29T15:14:01;5.83;;;2.23;;
9974;SDS011;5028;50.974;4.968;2023-05-29T15:16:30;7.87;;;2.57;;
9974;SDS011;5028;50.974;4.968;2023-05-29T15:18:59;7.53;;;2.63;;
9974;SDS011;5028;50.974;4.968;2023-05-29T15:21:30;5.87;;;2.30;;
9974;SDS011;5028;50.974;4.968;2023-05-29T15:23:58;5.40;;;2.33;;
9974;SDS011;5028;50.974;4.968;2023-05-29T15:26:27;6.70;;;2.50;;
9974;SDS011;5028;50.974;4.968;2023-05-29T15:28:57;5.93;;;2.50;;
9974;SDS011;5028;50.974;4.968;2023-05-29T15:31:25;6.23;;;2.43;;
9974;SDS011;5028;50.974;4.968;2023-05-29T15:33:54;8.60;;;2.60;;
9974;SDS011;5028;50.974;4.968;2023-05-29T15:36:23;6.03;;;2.57;;